Rechercher aéroport 
image banner adimage banner adimage banner ad
image banner ad

KSQL - San Carlos

Situé à San Carlos, United States

ICAO - SQL, IATA -

Données fournies par Airmate  

Information générale

Coordonnées: N37°30'43" W122°14'58"
Élévation : 6 feet MSL.
Variation magnétique : 15° East
Voir autres Aéroports à California

Données opérationnelles

Special qualification required
Heure actuelle UTC:
Heure actuelle locale:
Météo
METAR: KSQL 251335Z AUTO 00000KT 10SM OVC011 15/13 A2998 RMK AO2
Voir NOTAMs / SUP AIP / TFR affectant cet aéroport [VIEW]
Fréquences de communication: [VIEW]

Pistes:

Identifiant RWYQFULongueur (ft)Largeur (ft)SurfaceLDA (ft)
12138°262175ASPH
30318°262175ASPH

Coordonnées de l'aéroport

Adresse: San Carlos United States

Autres services d'aviation

Écoles de pilotage

West Valley Flying Club

West Valley Flying Club
mst@wvfc.org+1(650)856-2030

Jato Aviation

Jato Aviation
ops@jatoaviation.com+1(650)654-5286

San Carlos Flight Center

San Carlos Flight Center

Pelican Flight Training By Fly Bay Area

Pelican Flight Training By Fly Bay Area

Vue satellite de KSQL